Time;durP1;ratioP1;P1;durP2;ratioP2;P2;SDS_P1;SDS_P2;PMS_P1;PMS_P2;Temp;Humidity;BMP_temperature;BMP_pressure;BME280_temperature;BME280_humidity;BME280_pressure;Samples;Min_cycle;Max_cycle;Signal;HPM_P1;HPM_P2
2023/09/19 00:01:12;;;;;;;6.82;4.20;;;;;;;18.58;47.95;94227.56;4989915;28;20061;-79
2023/09/19 00:03:38;;;;;;;6.97;5.53;;;;;;;18.75;48.54;94254.13;4974016;28;20030;-79
2023/09/19 00:06:07;;;;;;;5.30;4.80;;;;;;;18.52;48.37;94223.59;4995311;28;20042;-80
2023/09/19 00:08:33;;;;;;;6.75;4.72;;;;;;;18.65;48.02;94249.28;4991083;28;20055;-80
2023/09/19 00:11:05;;;;;;;7.18;5.22;;;;;;;18.57;48.14;94239.50;4991206;28;20609;-81
2023/09/19 00:13:32;;;;;;;7.97;5.28;;;;;;;18.69;48.07;94263.59;4988472;28;20044;-80
2023/09/19 00:15:58;;;;;;;7.30;4.68;;;;;;;18.60;48.25;94246.84;4988478;28;20045;-79
2023/09/19 00:18:32;;;;;;;6.50;4.93;;;;;;;18.66;48.12;94260.84;4991086;28;20042;-80
2023/09/19 00:21:00;;;;;;;5.68;5.10;;;;;;;18.44;48.41;94236.13;4993091;28;20511;-79
2023/09/19 00:23:26;;;;;;;7.65;5.10;;;;;;;18.55;48.39;94249.81;4990417;28;21808;-80
2023/09/19 00:25:52;;;;;;;8.30;5.13;;;;;;;18.38;48.37;94213.28;4991528;28;20058;-79
2023/09/19 00:28:19;;;;;;;5.15;4.68;;;;;;;18.55;48.41;94244.44;4989328;28;20060;-80
2023/09/19 00:30:54;;;;;;;5.93;5.32;;;;;;;18.54;48.53;94242.09;4993766;28;20117;-79
2023/09/19 00:33:19;;;;;;;;;;;;;;;18.47;48.72;94248.13;4988343;28;20043;-80
2023/09/19 00:35:52;;;;;;;6.28;4.85;;;;;;;18.38;48.80;94234.84;4967149;28;19932;-80
2023/09/19 00:38:21;;;;;;;5.57;4.90;;;;;;;18.39;48.92;94236.41;4956642;28;20042;-79
2023/09/19 00:40:47;;;;;;;5.65;5.13;;;;;;;18.30;48.90;94221.56;4971011;28;20069;-79
2023/09/19 00:43:13;;;;;;;8.32;6.13;;;;;;;18.34;48.88;94227.81;4971023;28;20130;-80
2023/09/19 00:45:42;;;;;;;6.43;4.63;;;;;;;18.38;48.69;94234.06;4971610;28;20034;-79
2023/09/19 00:48:09;;;;;;;10.38;6.47;;;;;;;18.13;48.89;94216.59;4971553;28;20038;-78
2023/09/19 00:50:35;;;;;;;6.95;5.55;;;;;;;18.28;48.80;94238.09;4974443;28;20042;-78
2023/09/19 00:53:00;;;;;;;7.10;5.57;;;;;;;18.21;48.98;94232.53;4961244;28;20027;-80
2023/09/19 00:55:29;;;;;;;6.68;5.93;;;;;;;18.18;49.00;94224.41;4974231;28;20041;-79
2023/09/19 00:57:56;;;;;;;9.88;5.70;;;;;;;18.25;49.03;94235.31;4963285;28;20491;-80
2023/09/19 01:00:23;;;;;;;8.60;6.13;;;;;;;18.10;48.88;94219.97;4969994;28;20042;-76
2023/09/19 01:02:48;;;;;;;9.27;5.68;;;;;;;18.07;49.00;94217.97;4956189;28;20200;-78
2023/09/19 01:05:14;;;;;;;6.75;5.72;;;;;;;18.07;49.20;94220.66;4971128;28;20598;-80
2023/09/19 01:07:44;;;;;;;8.18;5.63;;;;;;;17.92;49.30;94211.47;4969212;28;20038;-79
2023/09/19 01:10:14;;;;;;;6.47;5.30;;;;;;;18.03;49.46;94232.16;4972562;28;20597;-81
2023/09/19 01:12:40;;;;;;;7.07;4.95;;;;;;;18.00;49.62;94235.53;4972356;28;20042;-78
2023/09/19 01:15:33;;;;;;;5.25;4.75;;;;;;;18.02;49.44;94235.19;4972888;28;20089;-78
2023/09/19 01:18:20;;;;;;;10.27;6.10;;;;;;;18.01;49.56;94237.09;4974000;28;20085;-81
2023/09/19 01:20:48;;;;;;;11.88;5.50;;;;;;;17.99;49.63;94242.03;4954930;28;20037;-81
2023/09/19 01:23:23;;;;;;;7.57;5.72;;;;;;;17.90;49.63;94229.84;4989753;28;20149;-79
2023/09/19 01:26:17;;;;;;;7.97;6.43;;;;;;;17.95;49.60;94246.56;4989690;28;20049;-78
2023/09/19 01:29:25;;;;;;;8.23;6.05;;;;;;;17.86;49.68;94237.06;4977589;28;20179;-79
2023/09/19 01:31:54;;;;;;;6.57;5.85;;;;;;;17.85;49.86;94238.97;4990511;28;20180;-79
2023/09/19 01:34:20;;;;;;;5.30;4.80;;;;;;;17.79;49.79;94228.84;4991293;28;20571;-79
2023/09/19 01:36:45;;;;;;;7.85;5.68;;;;;;;17.78;50.05;94244.19;4986772;28;20029;-78
2023/09/19 01:39:13;;;;;;;8.98;5.40;;;;;;;17.58;50.02;94207.59;4989910;28;20049;-77
2023/09/19 01:41:51;;;;;;;8.23;5.85;;;;;;;17.69;50.00;94230.16;4984600;28;20034;-78
2023/09/19 01:44:29;;;;;;;6.82;5.20;;;;;;;17.61;50.26;94212.25;4990376;28;20288;-78
2023/09/19 01:46:58;;;;;;;8.30;5.60;;;;;;;17.54;50.23;94212.09;4973497;28;20045;-80
2023/09/19 01:49:37;;;;;;;6.45;5.68;;;;;;;17.70;50.20;94239.75;4989950;28;20040;-79
2023/09/19 01:52:19;;;;;;;6.40;5.65;;;;;;;17.55;50.41;94210.97;4991725;28;20520;-78
2023/09/19 01:55:00;;;;;;;6.95;5.75;;;;;;;17.67;50.20;94242.38;4988708;28;20048;-79
2023/09/19 01:57:29;;;;;;;5.57;4.95;;;;;;;17.66;50.20;94238.91;4990705;28;20041;-79
2023/09/19 02:00:18;;;;;;;7.22;5.25;;;;;;;17.55;50.36;94229.81;4989571;28;20026;-79
2023/09/19 02:02:47;;;;;;;8.27;5.43;;;;;;;17.54;50.37;94244.38;4988583;28;20042;-77
2023/09/19 02:05:21;;;;;;;6.15;5.47;;;;;;;17.54;50.55;94239.78;4991729;28;20040;-79
2023/09/19 02:07:46;;;;;;;6.05;5.45;;;;;;;17.45;50.36;94224.94;4988764;28;20033;-80
2023/09/19 02:10:12;;;;;;;6.10;5.50;;;;;;;17.41;50.26;94218.66;4989453;28;20569;-78
2023/09/19 02:12:38;;;;;;;7.63;4.90;;;;;;;17.41;50.35;94221.34;4989083;28;20033;-78
2023/09/19 02:15:07;;;;;;;8.98;5.22;;;;;;;17.34;50.62;94219.28;4988907;28;20747;-80
2023/09/19 02:17:32;;;;;;;10.38;5.22;;;;;;;17.37;50.88;94226.66;4991988;28;20084;-82
2023/09/19 02:19:58;;;;;;;8.73;5.55;;;;;;;17.37;50.87;94239.31;4990785;28;20058;-82
2023/09/19 02:22:24;;;;;;;6.95;5.15;;;;;;;17.43;50.55;94238.72;4990545;28;21121;-81
2023/09/19 02:24:50;;;;;;;6.07;5.45;;;;;;;17.45;50.84;94235.69;4988601;28;20649;-79
2023/09/19 02:27:17;;;;;;;6.47;5.45;;;;;;;17.38;50.94;94235.50;4991586;28;20038;-82
2023/09/19 02:29:43;;;;;;;8.93;5.32;;;;;;;17.44;50.98;94229.53;4988999;28;20036;-81
2023/09/19 02:32:11;;;;;;;7.97;5.60;;;;;;;17.30;50.68;94209.56;4989027;28;20597;-81
2023/09/19 02:34:38;;;;;;;10.88;5.90;;;;;;;17.38;50.81;94220.16;4995936;28;20038;-81
2023/09/19 02:37:05;;;;;;;7.53;5.45;;;;;;;17.26;50.93;94200.63;4995310;28;20357;-81
2023/09/19 02:39:34;;;;;;;8.40;5.60;;;;;;;17.30;51.08;94209.56;4993148;28;20537;-79
2023/09/19 02:42:00;;;;;;;6.38;5.78;;;;;;;17.34;51.06;94202.38;4978271;28;20148;-79
2023/09/19 02:44:25;;;;;;;8.00;5.40;;;;;;;17.35;51.06;94210.09;4991316;28;20386;-80
2023/09/19 02:46:51;;;;;;;7.75;5.35;;;;;;;17.22;51.22;94194.38;4993834;28;20030;-81
2023/09/19 02:49:17;;;;;;;7.05;5.70;;;;;;;17.22;51.29;94191.69;4993675;28;20100;-80
2023/09/19 02:51:44;;;;;;;7.15;4.82;;;;;;;17.31;51.36;94203.81;4993838;28;20725;-81
2023/09/19 02:54:10;;;;;;;6.68;5.97;;;;;;;17.25;51.29;94196.38;4984958;28;20049;-81
2023/09/19 02:56:35;;;;;;;6.15;5.07;;;;;;;17.26;51.20;94204.09;4993317;28;20511;-80
2023/09/19 02:59:01;;;;;;;10.95;5.95;;;;;;;17.11;51.35;94183.34;4993707;28;20037;-80
2023/09/19 03:01:28;;;;;;;6.00;5.30;;;;;;;17.22;51.24;94195.16;4993099;28;20034;-80
2023/09/19 03:03:54;;;;;;;5.50;5.00;;;;;;;17.21;51.29;94187.47;4993849;28;20069;-80
2023/09/19 03:06:20;;;;;;;5.60;5.07;;;;;;;17.27;51.09;94204.88;4996371;28;20117;-80
2023/09/19 03:08:46;;;;;;;6.28;5.60;;;;;;;17.05;51.52;94168.59;4995293;28;20080;-79
2023/09/19 03:11:14;;;;;;;6.53;5.35;;;;;;;17.17;51.39;94192.72;4991969;28;20064;-80
2023/09/19 03:13:42;;;;;;;8.88;6.40;;;;;;;17.09;51.69;94180.19;4991741;28;20042;-81
2023/09/19 03:16:07;;;;;;;7.35;6.20;;;;;;;17.04;51.50;94169.72;4992709;28;20564;-80
2023/09/19 03:18:36;;;;;;;9.15;5.75;;;;;;;17.06;51.44;94176.28;4993508;28;20045;-80
2023/09/19 03:21:01;;;;;;;7.85;6.50;;;;;;;17.06;51.33;94178.97;4990954;28;20030;-80
2023/09/19 03:23:28;;;;;;;6.90;6.28;;;;;;;17.06;51.36;94178.97;4995652;28;20091;-81
2023/09/19 03:25:54;;;;;;;7.30;6.43;;;;;;;17.05;51.45;94174.75;4973724;28;20048;-81
2023/09/19 03:28:21;;;;;;;6.80;6.13;;;;;;;17.08;51.74;94179.41;4981607;28;20034;-80
2023/09/19 03:31:00;;;;;;;7.63;5.90;;;;;;;17.14;51.68;94188.03;4971972;28;20064;-80
2023/09/19 03:33:26;;;;;;;7.50;6.70;;;;;;;16.92;51.44;94151.75;4973732;28;20786;-81
2023/09/19 03:35:54;;;;;;;8.13;6.45;;;;;;;17.14;51.52;94191.50;4956221;28;20037;-80
2023/09/19 03:38:21;;;;;;;7.50;5.95;;;;;;;17.13;51.45;94198.00;4973451;28;20121;-80
2023/09/19 03:40:47;;;;;;;7.65;6.32;;;;;;;17.02;51.51;94188.84;4972441;28;20721;-80
2023/09/19 03:43:13;;;;;;;9.35;6.20;;;;;;;16.95;51.34;94186.00;4973617;28;20054;-79
2023/09/19 03:45:38;;;;;;;8.82;6.72;;;;;;;16.98;51.52;94197.94;4980484;28;20277;-80
2023/09/19 03:48:13;;;;;;;7.75;6.18;;;;;;;16.89;51.26;94184.66;4994629;28;21216;-79
2023/09/19 03:50:38;;;;;;;12.25;6.10;;;;;;;17.04;51.41;94207.31;4992163;28;20037;-80
2023/09/19 03:53:04;;;;;;;8.25;5.72;;;;;;;17.00;51.39;94199.19;4993445;28;20476;-80
2023/09/19 03:55:30;;;;;;;7.65;6.07;;;;;;;16.81;51.68;94182.94;4992613;28;20046;-81
2023/09/19 03:57:56;;;;;;;7.00;6.15;;;;;;;16.85;51.72;94193.75;4974678;28;20076;-80
2023/09/19 04:00:23;;;;;;;8.82;6.20;;;;;;;16.69;51.71;94175.69;4992361;28;20125;-80
2023/09/19 04:02:51;;;;;;;6.78;6.00;;;;;;;16.86;51.72;94198.03;4991714;28;20076;-79
2023/09/19 04:05:16;;;;;;;13.57;5.95;;;;;;;16.85;52.02;94207.97;4989538;28;20030;-80
2023/09/19 04:07:41;;;;;;;10.88;6.63;;;;;;;16.96;52.00;94213.66;4990645;28;20648;-81
2023/09/19 04:10:09;;;;;;;8.52;5.78;;;;;;;16.94;52.23;94215.88;4993193;28;20077;-80
2023/09/19 04:12:34;;;;;;;7.20;6.50;;;;;;;16.70;52.33;94187.22;4990707;28;20858;-79
2023/09/19 04:14:59;;;;;;;8.00;5.82;;;;;;;16.93;52.14;94233.91;4989755;28;22984;-80
2023/09/19 04:17:25;;;;;;;14.75;6.90;;;;;;;16.91;52.35;94233.47;4990066;28;20438;-81
2023/09/19 04:19:51;;;;;;;11.50;6.75;;;;;;;16.66;52.15;94189.03;4992539;28;20034;-77
2023/09/19 04:22:16;;;;;;;9.27;6.20;;;;;;;16.85;52.27;94224.09;4993146;28;20073;-80
2023/09/19 04:24:41;;;;;;;7.75;6.35;;;;;;;16.88;52.68;94226.09;4989772;28;20045;-81
2023/09/19 04:27:07;;;;;;;8.73;6.57;;;;;;;16.72;52.85;94203.78;4991106;28;20064;-81
2023/09/19 04:29:32;;;;;;;9.00;6.60;;;;;;;16.88;53.14;94218.03;4993465;28;20040;-79
2023/09/19 04:31:58;;;;;;;9.23;5.88;;;;;;;16.79;53.13;94192.44;4974843;28;20038;-79
2023/09/19 04:34:24;;;;;;;10.73;6.47;;;;;;;16.83;53.14;94193.31;4990856;28;20993;-80
2023/09/19 04:36:49;;;;;;;9.63;6.15;;;;;;;16.99;53.16;94215.63;4990289;28;20034;-78
2023/09/19 04:39:15;;;;;;;9.00;6.20;;;;;;;16.99;53.13;94210.25;4994517;28;20151;-80
2023/09/19 04:41:41;;;;;;;8.27;5.82;;;;;;;16.94;53.50;94199.75;4986390;28;20033;-81
2023/09/19 04:44:07;;;;;;;7.13;5.85;;;;;;;16.96;53.92;94209.06;4991002;28;20034;-85
2023/09/19 04:46:33;;;;;;;9.10;6.15;;;;;;;16.78;54.10;94170.16;4992268;28;20038;-81
2023/09/19 04:48:59;;;;;;;13.82;6.75;;;;;;;17.07;54.34;94209.31;4993216;28;20029;-81
2023/09/19 04:51:25;;;;;;;9.15;6.45;;;;;;;16.88;54.20;94175.03;4994759;28;21493;-81
2023/09/19 04:53:50;;;;;;;9.85;6.55;;;;;;;16.98;54.10;94184.50;4991035;28;20050;-81
2023/09/19 04:56:16;;;;;;;7.13;6.43;;;;;;;17.10;53.94;94198.69;4994792;28;20118;-82
2023/09/19 04:58:41;;;;;;;7.85;6.53;;;;;;;17.15;54.50;94194.97;4989969;28;20402;-81
2023/09/19 05:01:11;;;;;;;6.97;6.18;;;;;;;17.23;54.47;94195.94;4992545;28;20231;-81
2023/09/19 05:03:36;;;;;;;9.05;6.32;;;;;;;17.36;53.87;94202.78;4990178;28;20634;-81
2023/09/19 05:06:05;;;;;;;12.07;7.65;;;;;;;17.38;53.81;94192.47;4993874;28;20040;-82
2023/09/19 05:08:30;;;;;;;10.73;7.72;;;;;;;17.36;53.72;94183.97;4993853;28;20018;-80
2023/09/19 05:10:56;;;;;;;11.30;6.35;;;;;;;17.47;53.55;94193.88;4992138;28;20169;-81
2023/09/19 05:13:23;;;;;;;9.95;6.68;;;;;;;17.55;53.58;94197.53;4989763;28;20084;-81
2023/09/19 05:15:50;;;;;;;11.20;7.97;;;;;;;17.73;52.26;94206.81;4989925;28;20034;-81
2023/09/19 05:18:15;;;;;;;11.75;7.03;;;;;;;17.78;51.87;94206.53;4970016;28;20047;-80
2023/09/19 05:20:41;;;;;;;15.45;7.43;;;;;;;17.77;51.72;94204.97;4971695;28;20041;-81
2023/09/19 05:23:08;;;;;;;15.23;7.32;;;;;;;17.69;51.50;94181.72;4978058;28;20952;-80
2023/09/19 05:25:39;;;;;;;14.88;8.05;;;;;;;17.77;52.10;94196.91;4991014;28;20038;-80
2023/09/19 05:28:11;;;;;;;9.48;7.85;;;;;;;17.80;52.17;94187.34;4977004;28;20110;-80
2023/09/19 05:30:38;;;;;;;9.43;7.82;;;;;;;17.74;52.85;94173.41;4974424;28;20042;-81
2023/09/19 05:33:04;;;;;;;13.30;7.82;;;;;;;17.88;52.20;94179.09;4979494;28;20211;-80
2023/09/19 05:35:30;;;;;;;10.32;7.05;;;;;;;17.88;52.29;94176.41;4973084;28;20045;-80
2023/09/19 05:37:57;;;;;;;10.38;7.75;;;;;;;17.94;52.02;94188.47;4975226;28;20034;-81
2023/09/19 05:40:24;;;;;;;8.35;6.30;;;;;;;17.86;52.29;94181.34;4988483;28;20100;-80
2023/09/19 05:42:50;;;;;;;10.05;7.13;;;;;;;17.92;52.08;94174.56;4995789;28;20038;-81
2023/09/19 05:45:21;;;;;;;14.23;7.80;;;;;;;17.96;52.15;94163.91;4994370;28;20049;-81
2023/09/19 05:47:48;;;;;;;10.02;7.95;;;;;;;18.02;52.23;94176.75;4997015;28;20038;-81
2023/09/19 05:50:16;;;;;;;13.10;7.20;;;;;;;18.08;52.13;94181.88;4998379;28;20120;-81
2023/09/19 05:52:42;;;;;;;13.52;7.32;;;;;;;18.03;51.24;94181.00;4996737;28;20417;-82
2023/09/19 05:55:08;;;;;;;12.23;7.57;;;;;;;18.12;50.60;94188.09;4980707;28;20588;-81
2023/09/19 05:57:42;;;;;;;9.75;7.15;;;;;;;17.96;51.19;94164.69;4994182;28;20042;-81
2023/09/19 06:00:10;;;;;;;8.95;7.10;;;;;;;17.75;50.96;94148.03;4992919;28;21074;-81
2023/09/19 06:02:40;;;;;;;11.02;7.75;;;;;;;17.96;51.53;94180.84;4998060;28;20038;-80
2023/09/19 06:05:06;;;;;;;11.95;7.30;;;;;;;17.97;51.75;94181.63;4996589;28;20578;-82
2023/09/19 06:07:36;;;;;;;8.40;7.07;;;;;;;18.02;51.82;94178.66;4999885;28;20041;-80
2023/09/19 06:10:06;;;;;;;10.70;7.60;;;;;;;18.09;51.39;94176.13;5001130;28;20610;-80
2023/09/19 06:12:37;;;;;;;15.35;7.53;;;;;;;18.11;50.86;94170.38;4996458;28;20073;-80
2023/09/19 06:15:05;;;;;;;13.35;7.82;;;;;;;18.15;51.20;94171.25;4999020;28;20145;-77
2023/09/19 06:17:31;;;;;;;10.98;7.47;;;;;;;18.18;50.70;94175.94;4998905;28;20032;-82
2023/09/19 06:19:56;;;;;;;10.20;7.32;;;;;;;18.11;51.08;94167.69;4982338;28;20421;-81
2023/09/19 06:22:23;;;;;;;13.73;7.65;;;;;;;18.14;51.28;94157.00;4999104;28;20037;-81
2023/09/19 06:24:49;;;;;;;11.93;7.55;;;;;;;18.13;52.33;94152.78;5000118;28;20494;-80
2023/09/19 06:27:15;;;;;;;16.67;9.73;;;;;;;18.35;52.17;94164.75;4998056;28;20026;-79
2023/09/19 06:29:41;;;;;;;13.27;7.80;;;;;;;18.36;52.12;94160.94;5001710;28;20030;-81
2023/09/19 06:32:10;;;;;;;13.70;8.27;;;;;;;18.29;51.88;94142.72;4995021;28;20041;-80
2023/09/19 06:34:35;;;;;;;12.45;8.38;;;;;;;18.39;52.29;94170.97;4996735;28;20128;-80
2023/09/19 06:37:01;;;;;;;19.15;7.80;;;;;;;18.49;51.15;94151.56;4996747;28;20105;-80
2023/09/19 06:39:26;;;;;;;11.07;8.02;;;;;;;18.65;50.90;94163.06;4975536;28;20047;-82
2023/09/19 06:41:55;;;;;;;10.20;8.57;;;;;;;18.65;50.71;94154.97;4955300;28;20989;-82
2023/09/19 06:44:24;;;;;;;13.25;7.45;;;;;;;18.66;49.63;94161.94;4996393;28;20379;-82
2023/09/19 06:46:51;;;;;;;16.13;7.10;;;;;;;18.71;49.82;94177.06;4997631;28;20605;-82
2023/09/19 06:49:17;;;;;;;22.48;6.80;;;;;;;18.53;50.03;94155.13;4996801;28;20038;-81
2023/09/19 06:51:43;;;;;;;11.85;7.93;;;;;;;18.57;49.65;94165.97;4975373;28;20050;-78
2023/09/19 06:54:09;;;;;;;10.68;7.93;;;;;;;18.71;50.77;94180.53;4964127;28;20038;-82
2023/09/19 06:56:34;;;;;;;11.38;7.63;;;;;;;18.64;50.88;94161.50;4986056;28;20566;-81
2023/09/19 06:59:00;;;;;;;8.60;6.43;;;;;;;18.76;49.85;94182.94;4977947;28;20064;-80
2023/09/19 07:01:26;;;;;;;9.27;6.85;;;;;;;18.66;50.04;94170.03;4977881;28;20596;-81
2023/09/19 07:03:53;;;;;;;17.17;7.50;;;;;;;18.71;49.56;94167.06;4962828;28;20042;-79
2023/09/19 07:06:18;;;;;;;10.27;6.63;;;;;;;18.80;50.10;94177.63;4979664;28;20557;-82
2023/09/19 07:08:45;;;;;;;18.08;7.65;;;;;;;18.53;51.72;94184.75;4979362;28;20157;-81
2023/09/19 07:11:12;;;;;;;10.93;6.82;;;;;;;18.56;50.59;94154.41;4979770;28;20034;-80
2023/09/19 07:13:38;;;;;;;12.35;7.88;;;;;;;18.72;51.06;94174.03;4978529;28;20494;-81
2023/09/19 07:16:04;;;;;;;10.27;6.93;;;;;;;18.75;51.51;94164.44;4959791;28;20042;-80
2023/09/19 07:18:29;;;;;;;13.40;5.95;;;;;;;18.70;50.98;94154.72;4977436;28;20371;-81
2023/09/19 07:21:01;;;;;;;10.40;5.35;;;;;;;18.89;50.70;94160.09;4977084;28;20038;-81
2023/09/19 07:23:26;;;;;;;12.82;5.70;;;;;;;19.04;50.46;94184.63;4977341;28;20026;-80
2023/09/19 07:25:56;;;;;;;12.07;6.00;;;;;;;19.20;49.71;94177.22;4977972;28;20057;-82
2023/09/19 07:28:22;;;;;;;12.00;6.18;;;;;;;19.14;49.56;94178.63;4977317;28;20354;-82
2023/09/19 07:30:48;;;;;;;11.48;6.70;;;;;;;19.11;49.82;94153.19;4958547;28;20030;-81
2023/09/19 07:33:13;;;;;;;12.48;6.53;;;;;;;19.37;49.46;94186.72;4976717;28;20050;-81
2023/09/19 07:35:42;;;;;;;13.93;6.82;;;;;;;19.31;49.29;94173.53;4977418;28;20493;-82
2023/09/19 07:38:07;;;;;;;10.57;5.68;;;;;;;19.43;49.10;94179.91;4976187;28;20026;-81
2023/09/19 07:40:33;;;;;;;10.02;6.32;;;;;;;19.51;49.55;94182.38;4979237;28;20047;-80
2023/09/19 07:43:01;;;;;;;11.20;6.35;;;;;;;19.56;49.00;94179.38;4975041;28;20042;-80
2023/09/19 07:45:36;;;;;;;12.25;6.72;;;;;;;19.51;48.82;94177.00;4965850;28;20128;-82
2023/09/19 07:48:06;;;;;;;14.30;6.03;;;;;;;19.57;49.16;94175.56;4996025;28;20026;-81
2023/09/19 07:50:36;;;;;;;8.63;6.28;;;;;;;19.71;49.28;94191.97;4998431;28;20026;-81
2023/09/19 07:53:04;;;;;;;10.45;5.90;;;;;;;19.60;47.80;94169.44;4994165;28;20034;-82
2023/09/19 07:55:30;;;;;;;13.02;6.95;;;;;;;19.71;48.58;94186.56;4996508;28;20124;-82
2023/09/19 07:57:56;;;;;;;10.98;6.60;;;;;;;19.65;48.51;94182.63;4995506;28;20334;-80
2023/09/19 08:00:21;;;;;;;13.00;6.43;;;;;;;19.77;49.06;94189.75;4999038;28;20314;-81
2023/09/19 08:02:51;;;;;;;20.23;8.35;;;;;;;19.79;49.38;94192.88;4999825;28;20048;-80
2023/09/19 08:05:18;;;;;;;13.63;7.88;;;;;;;19.73;47.77;94189.69;4997285;28;20064;-81
2023/09/19 08:07:48;;;;;;;17.13;7.53;;;;;;;19.71;48.36;94180.41;4998253;28;20113;-81
2023/09/19 08:10:15;;;;;;;17.27;8.30;;;;;;;19.67;48.61;94164.16;4998609;28;20058;-83
2023/09/19 08:12:48;;;;;;;15.88;8.52;;;;;;;19.69;48.60;94159.19;4999756;28;20030;-81
2023/09/19 08:15:21;;;;;;;14.20;8.00;;;;;;;19.81;48.68;94173.59;4997535;28;20828;-82
2023/09/19 08:17:47;;;;;;;15.10;7.47;;;;;;;19.87;49.20;94155.97;4998605;28;20474;-83
2023/09/19 08:20:17;;;;;;;15.80;7.70;;;;;;;19.87;47.60;94145.16;4995850;28;20056;-82
2023/09/19 08:22:56;;;;;;;12.07;7.65;;;;;;;19.90;47.86;94150.63;4976591;28;20038;-81
2023/09/19 08:25:23;;;;;;;9.52;6.38;;;;;;;19.89;48.32;94142.91;4998600;28;20862;-82
2023/09/19 08:27:49;;;;;;;9.70;6.47;;;;;;;19.96;48.69;94149.16;4992882;28;20491;-81
2023/09/19 08:30:20;;;;;;;16.92;6.57;;;;;;;20.05;48.19;94140.78;4994984;28;20045;-81
2023/09/19 08:32:46;;;;;;;9.57;6.63;;;;;;;20.19;48.16;94165.31;4994842;28;20030;-84
2023/09/19 08:35:11;;;;;;;11.40;6.45;;;;;;;20.22;49.20;94161.91;4993312;28;20532;-77
2023/09/19 08:37:37;;;;;;;9.63;6.38;;;;;;;20.09;47.86;94147.06;4996217;28;20104;-82
2023/09/19 08:40:02;;;;;;;19.92;7.53;;;;;;;20.15;48.53;94173.34;4996131;28;20030;-82
2023/09/19 08:42:28;;;;;;;13.13;6.95;;;;;;;20.10;48.63;94170.19;4994632;28;20045;-82
2023/09/19 08:44:56;;;;;;;11.60;7.18;;;;;;;20.00;49.22;94170.81;4995164;28;20508;-82
2023/09/19 08:47:35;;;;;;;13.45;7.18;;;;;;;20.11;48.63;94155.53;4998383;28;20030;-79
2023/09/19 08:50:14;;;;;;;12.13;6.78;;;;;;;20.32;48.63;94161.28;4990801;28;20037;-81
2023/09/19 08:52:43;;;;;;;12.15;7.03;;;;;;;20.31;47.98;94132.69;4980032;28;20038;-83
2023/09/19 08:55:20;;;;;;;14.95;7.78;;;;;;;20.44;48.48;94152.94;4997775;28;20778;-82
2023/09/19 08:57:48;;;;;;;14.85;8.20;;;;;;;20.26;48.24;94137.66;4993347;28;20129;-79
2023/09/19 09:00:17;;;;;;;17.33;7.30;;;;;;;20.31;48.21;94142.72;4976776;28;20034;-80
2023/09/19 09:02:43;;;;;;;16.02;6.15;;;;;;;20.28;47.45;94136.16;4995855;28;20070;-81
2023/09/19 09:05:10;;;;;;;10.00;6.50;;;;;;;20.62;47.28;94146.97;4997012;28;20143;-82
2023/09/19 09:07:40;;;;;;;16.92;6.63;;;;;;;20.62;46.80;94138.88;4990806;28;20658;-81
2023/09/19 09:10:06;;;;;;;10.00;7.45;;;;;;;20.29;47.73;94102.56;4996270;28;20046;-82
2023/09/19 09:12:33;;;;;;;14.23;6.95;;;;;;;20.52;47.52;94140.31;4996376;28;20445;-82
2023/09/19 09:15:00;;;;;;;11.77;5.85;;;;;;;20.64;47.26;94144.66;4981957;28;20060;-79
2023/09/19 09:17:26;;;;;;;11.27;7.20;;;;;;;20.48;47.13;94115.91;4994802;28;20030;-80
2023/09/19 09:19:54;;;;;;;9.45;7.13;;;;;;;20.75;47.65;94140.16;4999251;28;20354;-81
2023/09/19 09:22:23;;;;;;;11.50;6.40;;;;;;;20.86;46.91;94138.38;4996363;28;20042;-82
2023/09/19 09:24:53;;;;;;;28.23;8.07;;;;;;;20.83;47.32;94131.75;4997511;28;20044;-83
2023/09/19 09:27:19;;;;;;;9.27;6.45;;;;;;;20.86;46.27;94122.16;4997884;28;20053;-84
2023/09/19 09:29:51;;;;;;;10.38;6.88;;;;;;;20.83;46.84;94103.94;4995966;28;20037;-81
2023/09/19 09:32:28;;;;;;;12.63;6.88;;;;;;;20.96;47.20;94124.22;4996358;28;20041;-82
2023/09/19 09:34:59;;;;;;;13.13;7.40;;;;;;;21.03;48.13;94121.56;4988904;28;20030;-82
2023/09/19 09:37:28;;;;;;;17.15;6.68;;;;;;;21.11;47.17;94123.22;4985482;28;20039;-82
2023/09/19 09:39:56;;;;;;;13.45;6.95;;;;;;;21.09;46.93;94117.38;4967514;28;20036;-83
2023/09/19 09:42:35;;;;;;;10.43;7.00;;;;;;;20.97;47.02;94082.53;5001074;28;20038;-81
2023/09/19 09:45:18;;;;;;;13.40;8.38;;;;;;;21.32;46.63;94114.50;4999036;28;20033;-82
2023/09/19 09:47:55;;;;;;;16.40;7.60;;;;;;;21.19;46.83;94089.66;5002374;28;20045;-82
2023/09/19 09:50:56;;;;;;;12.73;7.22;;;;;;;21.29;47.01;94104.44;4998697;28;20101;-79
2023/09/19 09:53:32;;;;;;;20.38;6.85;;;;;;;21.19;46.95;94094.28;4981671;28;20525;-83
2023/09/19 09:56:14;;;;;;;13.50;6.95;;;;;;;21.20;45.98;94095.84;4999129;28;20042;-79
2023/09/19 09:58:48;;;;;;;16.42;7.00;;;;;;;21.32;46.24;94103.66;4999979;28;20142;-81
2023/09/19 10:01:16;;;;;;;16.90;7.88;;;;;;;20.96;46.37;94067.44;4994556;28;20045;-81
2023/09/19 10:03:49;;;;;;;15.35;7.15;;;;;;;21.24;46.55;94097.44;4998197;28;20042;-82
2023/09/19 10:06:26;;;;;;;7.72;6.15;;;;;;;21.30;46.68;94079.72;4997806;28;20484;-82
2023/09/19 10:09:05;;;;;;;24.70;7.00;;;;;;;21.55;46.69;94092.69;5001843;28;20164;-81
2023/09/19 10:11:30;;;;;;;12.45;6.70;;;;;;;21.65;46.21;94105.53;5001625;28;20028;-81
2023/09/19 10:14:01;;;;;;;10.15;6.07;;;;;;;21.58;45.60;94081.88;4999618;28;20397;-83
2023/09/19 10:16:30;;;;;;;19.67;8.40;;;;;;;21.69;45.72;94088.16;5000364;28;20030;-80
2023/09/19 10:19:01;;;;;;;13.32;6.80;;;;;;;21.62;45.61;94074.56;5000551;28;20037;-80
2023/09/19 10:21:29;;;;;;;11.77;7.00;;;;;;;21.83;45.66;94090.94;5000857;28;20568;-82
2023/09/19 10:23:59;;;;;;;15.10;7.15;;;;;;;21.76;45.33;94076.56;4996007;28;20030;-81
2023/09/19 10:26:30;;;;;;;14.85;9.15;;;;;;;21.79;45.43;94083.97;4999687;28;20057;-82
2023/09/19 10:28:57;;;;;;;13.77;6.68;;;;;;;21.78;45.15;94082.41;4974349;28;20345;-81
2023/09/19 10:31:25;;;;;;;10.35;6.75;;;;;;;21.95;45.06;94091.81;4970066;28;20042;-81
2023/09/19 10:33:53;;;;;;;14.55;7.68;;;;;;;22.01;45.67;94085.63;4973313;28;20042;-80
2023/09/19 10:36:20;;;;;;;15.10;6.95;;;;;;;21.81;44.92;94054.56;4971747;28;20046;-81
2023/09/19 10:38:48;;;;;;;14.10;6.57;;;;;;;22.09;44.54;94081.81;4987885;28;20027;-82
2023/09/19 10:41:18;;;;;;;12.07;7.03;;;;;;;22.03;44.57;94072.50;4985405;28;20301;-82
2023/09/19 10:43:46;;;;;;;11.65;7.55;;;;;;;22.10;44.66;94077.94;4971526;28;20050;-82
2023/09/19 10:46:12;;;;;;;13.63;6.75;;;;;;;22.08;44.31;94069.44;4971986;28;20042;-83
2023/09/19 10:48:39;;;;;;;14.80;7.35;;;;;;;22.15;44.61;94080.28;4989079;28;21090;-83
2023/09/19 10:51:10;;;;;;;14.23;6.78;;;;;;;22.09;44.94;94072.91;4975253;28;20041;-81
2023/09/19 10:53:45;;;;;;;11.10;6.40;;;;;;;22.11;44.99;94079.50;4983523;28;20117;-82
2023/09/19 10:56:27;;;;;;;14.60;7.45;;;;;;;22.08;45.34;94042.34;4974113;28;20851;-83
2023/09/19 10:59:13;;;;;;;16.80;6.57;;;;;;;22.19;44.82;94064.81;4973912;28;20578;-80
2023/09/19 11:01:42;;;;;;;10.57;6.03;;;;;;;22.30;44.61;94064.91;4993544;28;20030;-81
2023/09/19 11:04:35;;;;;;;13.77;6.85;;;;;;;22.39;44.70;94067.28;4994125;28;20052;-82
2023/09/19 11:07:15;;;;;;;13.27;6.50;;;;;;;22.35;44.58;94055.63;4992152;28;20048;-83
2023/09/19 11:09:54;;;;;;;12.73;6.75;;;;;;;22.39;44.27;94061.84;4992193;28;20043;-78
2023/09/19 11:12:32;;;;;;;11.73;5.53;;;;;;;22.41;43.54;94070.34;4994216;28;20120;-79
2023/09/19 11:14:58;;;;;;;7.85;6.18;;;;;;;22.32;44.75;94057.19;4994215;28;20482;-81
2023/09/19 11:17:32;;;;;;;18.48;6.40;;;;;;;22.43;44.56;94057.22;4980906;28;20397;-80
2023/09/19 11:20:15;;;;;;;10.40;5.78;;;;;;;22.52;45.32;94060.34;4992282;28;20857;-79
2023/09/19 11:22:51;;;;;;;13.68;6.07;;;;;;;22.52;44.84;94054.91;4988829;28;20041;-79
2023/09/19 11:25:34;;;;;;;8.52;6.53;;;;;;;22.34;44.40;94045.97;4990283;28;20087;-83
2023/09/19 11:28:08;;;;;;;14.82;7.03;;;;;;;22.44;44.56;94054.09;4988927;28;20066;-81
2023/09/19 11:30:38;;;;;;;10.73;6.20;;;;;;;22.61;44.52;94058.03;4988729;28;20404;-81
2023/09/19 11:33:28;;;;;;;13.73;6.93;;;;;;;22.62;44.71;94044.13;4992654;28;20036;-80
2023/09/19 11:36:18;;;;;;;12.40;6.32;;;;;;;22.48;44.48;94037.88;4987196;28;20088;-81
2023/09/19 11:38:49;;;;;;;11.07;6.00;;;;;;;22.65;44.80;94042.56;4995334;28;20108;-82